createdAt,value
2023-10-02T00:00:07.896Z,99.99
2023-10-02T00:01:08.050Z,99.99
2023-10-02T00:02:08.064Z,99.99
2023-10-02T00:03:07.972Z,99.99
2023-10-02T00:04:08.109Z,99.99
2023-10-02T00:05:08.247Z,99.99
2023-10-02T00:06:07.981Z,99.99
2023-10-02T00:07:07.909Z,99.99
2023-10-02T00:08:08.111Z,99.99
2023-10-02T00:09:07.941Z,99.99
2023-10-02T00:10:07.920Z,99.99
2023-10-02T00:11:07.899Z,99.99
2023-10-02T00:12:07.742Z,99.99
2023-10-02T00:13:07.779Z,99.99
2023-10-02T00:14:07.911Z,99.99
2023-10-02T00:15:07.932Z,99.99
2023-10-02T00:16:07.778Z,99.99
2023-10-02T00:17:07.771Z,99.99
2023-10-02T00:18:07.732Z,99.99
2023-10-02T00:19:07.700Z,99.99
2023-10-02T00:20:07.700Z,99.99
2023-10-02T00:21:07.645Z,99.99
2023-10-02T00:22:07.674Z,99.99
2023-10-02T00:23:07.647Z,99.99
2023-10-02T00:24:07.683Z,99.99
2023-10-02T00:25:07.853Z,99.99
2023-10-02T00:26:07.591Z,99.99
2023-10-02T00:27:07.566Z,99.99
2023-10-02T00:28:07.584Z,99.99
2023-10-02T00:29:07.711Z,99.99
2023-10-02T00:30:07.580Z,99.99
2023-10-02T00:31:07.641Z,99.99
2023-10-02T00:32:08.056Z,99.99
2023-10-02T00:33:07.575Z,99.99
2023-10-02T00:34:07.527Z,99.99
2023-10-02T00:35:07.570Z,99.99
2023-10-02T00:36:07.509Z,99.99
2023-10-02T00:37:07.587Z,99.99
2023-10-02T00:38:07.514Z,99.99
2023-10-02T00:39:07.548Z,99.99
2023-10-02T00:40:07.496Z,99.99
2023-10-02T00:41:07.519Z,99.99
2023-10-02T00:42:07.457Z,99.99
2023-10-02T00:43:07.464Z,99.99
2023-10-02T00:44:07.624Z,99.99
2023-10-02T00:45:07.550Z,99.99
2023-10-02T00:46:07.407Z,99.99
2023-10-02T00:47:07.570Z,99.99
2023-10-02T00:48:07.417Z,99.99
2023-10-02T00:49:07.460Z,99.99
2023-10-02T00:50:07.476Z,99.99
2023-10-02T00:51:07.984Z,99.99
2023-10-02T00:52:07.401Z,99.99
2023-10-02T00:53:07.369Z,99.99
2023-10-02T00:54:07.316Z,99.99
2023-10-02T00:55:07.508Z,99.99
2023-10-02T00:56:07.402Z,99.99
2023-10-02T00:57:07.294Z,99.99
2023-10-02T00:58:07.425Z,99.99
2023-10-02T00:59:07.454Z,99.99
2023-10-02T01:00:07.348Z,99.99
2023-10-02T01:01:07.415Z,99.99
2023-10-02T01:02:07.549Z,99.99
2023-10-02T01:03:07.322Z,99.99
2023-10-02T01:04:07.256Z,99.99
2023-10-02T01:05:07.574Z,99.99
2023-10-02T01:06:07.219Z,99.99
2023-10-02T01:07:07.815Z,99.99
2023-10-02T01:08:07.263Z,99.99
2023-10-02T01:09:07.159Z,99.99
2023-10-02T01:10:07.151Z,99.99
2023-10-02T01:11:07.283Z,99.99
2023-10-02T01:12:07.128Z,99.99
2023-10-02T01:13:07.336Z,99.99
2023-10-02T01:14:07.156Z,99.99
2023-10-02T01:15:07.116Z,99.99
2023-10-02T01:16:07.115Z,99.99
2023-10-02T01:17:07.153Z,99.99
2023-10-02T01:18:07.142Z,99.99
2023-10-02T01:19:07.298Z,99.99
2023-10-02T01:20:07.125Z,99.99
2023-10-02T01:21:07.058Z,99.99
2023-10-02T01:22:07.026Z,99.99
2023-10-02T01:23:07.247Z,99.99
2023-10-02T01:24:07.055Z,99.99
2023-10-02T01:25:07.056Z,99.99
2023-10-02T01:26:07.268Z,99.99
2023-10-02T01:27:06.973Z,99.99
2023-10-02T01:28:06.976Z,99.99
2023-10-02T01:29:07.045Z,99.99
2023-10-02T01:30:07.072Z,99.99
2023-10-02T01:31:07.528Z,99.99
2023-10-02T01:32:07.003Z,99.99
2023-10-02T01:33:06.892Z,99.99
2023-10-02T01:34:06.928Z,99.99
2023-10-02T01:35:06.976Z,99.99
2023-10-02T01:36:06.902Z,99.99
2023-10-02T01:37:06.929Z,99.99
2023-10-02T01:38:06.894Z,99.99
2023-10-02T01:39:06.891Z,99.99
2023-10-02T01:40:06.950Z,99.99
2023-10-02T01:41:06.889Z,99.99
2023-10-02T01:42:06.897Z,99.99
2023-10-02T01:43:07.634Z,99.99
2023-10-02T01:44:06.906Z,99.99
2023-10-02T01:45:06.848Z,99.99
2023-10-02T01:46:06.875Z,99.99
2023-10-02T01:47:06.840Z,99.99
2023-10-02T01:48:06.839Z,99.99
2023-10-02T01:49:06.836Z,99.99
2023-10-02T01:50:06.822Z,99.99
2023-10-02T01:51:06.843Z,99.99
2023-10-02T01:52:06.764Z,99.99
2023-10-02T01:53:06.798Z,99.99
2023-10-02T01:54:06.817Z,99.99
2023-10-02T01:55:06.896Z,99.99
2023-10-02T01:56:06.897Z,99.99
2023-10-02T01:57:06.660Z,99.99
2023-10-02T01:58:06.681Z,99.99
2023-10-02T01:59:06.858Z,99.99
2023-10-02T02:00:06.673Z,99.99
2023-10-02T02:01:06.666Z,99.99
2023-10-02T02:02:06.867Z,99.99
2023-10-02T02:03:07.637Z,99.99
2023-10-02T02:04:06.610Z,99.99
2023-10-02T02:05:06.713Z,99.99
2023-10-02T02:06:06.737Z,99.99
2023-10-02T02:07:06.660Z,99.99
2023-10-02T02:08:06.775Z,99.99
2023-10-02T02:09:06.798Z,99.99
2023-10-02T02:10:06.813Z,99.99
2023-10-02T02:11:06.597Z,99.99
2023-10-02T02:12:07.221Z,99.99
2023-10-02T02:13:06.556Z,99.99
2023-10-02T02:14:06.629Z,99.99
2023-10-02T02:15:06.841Z,99.99
2023-10-02T02:16:06.572Z,99.99
2023-10-02T02:17:06.564Z,99.99
2023-10-02T02:18:06.565Z,99.99
2023-10-02T02:19:06.771Z,99.99
2023-10-02T02:20:06.514Z,99.99
2023-10-02T02:21:06.563Z,99.99
2023-10-02T02:22:06.587Z,99.99
2023-10-02T02:23:06.529Z,99.99
2023-10-02T02:24:06.442Z,99.99
2023-10-02T02:25:06.457Z,99.99
2023-10-02T02:26:06.586Z,99.99
2023-10-02T02:27:06.575Z,99.99
2023-10-02T02:28:06.446Z,99.99
2023-10-02T02:29:06.560Z,99.99
2023-10-02T02:30:06.505Z,99.99
2023-10-02T02:31:06.455Z,99.99
2023-10-02T02:32:06.430Z,99.99
2023-10-02T02:33:06.469Z,99.99
2023-10-02T02:34:06.485Z,99.99
2023-10-02T02:35:06.440Z,99.99
2023-10-02T02:36:06.283Z,99.99
2023-10-02T02:37:06.360Z,99.99
2023-10-02T02:38:06.586Z,99.99
2023-10-02T02:39:06.300Z,99.99
2023-10-02T02:40:06.254Z,99.99
2023-10-02T02:41:06.747Z,99.99
2023-10-02T02:42:06.245Z,99.99
2023-10-02T02:43:06.289Z,99.99
2023-10-02T02:44:06.249Z,99.99
2023-10-02T02:45:06.395Z,99.99
2023-10-02T02:46:06.281Z,99.99
2023-10-02T02:47:06.254Z,99.99
2023-10-02T02:48:07.018Z,99.99
2023-10-02T02:49:06.240Z,99.99
2023-10-02T02:50:06.188Z,99.99
2023-10-02T02:51:06.248Z,99.99
2023-10-02T02:52:06.234Z,99.99
2023-10-02T02:53:06.388Z,99.99
2023-10-02T02:54:06.159Z,99.99
2023-10-02T02:55:06.176Z,99.99
2023-10-02T02:56:06.348Z,99.99
2023-10-02T02:57:06.129Z,99.99
2023-10-02T02:58:06.135Z,99.99
2023-10-02T02:59:06.112Z,99.99
2023-10-02T03:00:06.074Z,99.99
2023-10-02T03:01:06.196Z,99.99
2023-10-02T03:02:06.224Z,99.99
2023-10-02T03:03:06.223Z,99.99
2023-10-02T03:04:06.207Z,99.99
2023-10-02T03:05:06.028Z,99.99
2023-10-02T03:06:06.045Z,99.99
2023-10-02T03:07:06.013Z,99.99
2023-10-02T03:08:06.213Z,99.99
2023-10-02T03:09:05.990Z,99.99
2023-10-02T03:10:06.100Z,99.99
2023-10-02T03:11:06.123Z,99.99
2023-10-02T03:12:06.095Z,99.99
2023-10-02T03:13:06.099Z,99.99
2023-10-02T03:14:06.022Z,99.99
2023-10-02T03:15:06.266Z,99.99
2023-10-02T03:16:06.217Z,99.99
2023-10-02T03:17:06.167Z,99.99
2023-10-02T03:18:06.182Z,99.99
2023-10-02T03:19:06.156Z,99.99
2023-10-02T03:20:06.143Z,99.99
2023-10-02T03:21:06.210Z,99.99
2023-10-02T03:22:05.904Z,99.99
2023-10-02T03:23:06.189Z,99.99
2023-10-02T03:24:05.843Z,99.99
2023-10-02T03:25:05.849Z,99.99
2023-10-02T03:26:06.050Z,99.99
2023-10-02T03:27:05.972Z,99.99
2023-10-02T03:28:05.815Z,99.99
2023-10-02T03:29:06.237Z,99.99
2023-10-02T03:30:05.773Z,99.99
2023-10-02T03:31:05.866Z,99.99
2023-10-02T03:32:05.920Z,99.99
2023-10-02T03:33:06.168Z,99.99
2023-10-02T03:34:05.722Z,99.99
2023-10-02T03:35:05.783Z,99.99
2023-10-02T03:36:05.834Z,99.99
2023-10-02T03:37:05.910Z,99.99
2023-10-02T03:38:05.969Z,99.99
2023-10-02T03:39:06.108Z,99.99
2023-10-02T03:40:05.649Z,99.99
2023-10-02T03:41:05.701Z,99.99
2023-10-02T03:42:05.623Z,99.99
2023-10-02T03:43:05.753Z,99.99
2023-10-02T03:44:05.764Z,99.99
2023-10-02T03:45:05.716Z,99.99
2023-10-02T03:46:05.688Z,99.99
2023-10-02T03:47:05.676Z,99.99
2023-10-02T03:48:05.602Z,99.99
2023-10-02T03:49:05.673Z,99.99
2023-10-02T03:50:05.747Z,99.99
2023-10-02T03:51:05.638Z,99.99
2023-10-02T03:52:05.739Z,99.99
2023-10-02T03:53:05.619Z,99.99
2023-10-02T03:54:05.539Z,99.99
2023-10-02T03:55:05.589Z,99.99
2023-10-02T03:56:05.711Z,99.99
2023-10-02T03:57:05.524Z,99.99
2023-10-02T03:58:05.586Z,99.99
2023-10-02T03:59:05.665Z,99.99
2023-10-02T04:00:05.521Z,99.99
2023-10-02T04:01:05.484Z,99.99
2023-10-02T04:02:05.582Z,99.99
2023-10-02T04:03:05.464Z,99.99
2023-10-02T04:04:05.616Z,99.99
2023-10-02T04:05:05.443Z,99.99
2023-10-02T04:06:05.441Z,99.99
2023-10-02T04:07:05.439Z,99.99
2023-10-02T04:08:05.496Z,99.99
2023-10-02T04:09:05.412Z,99.99
2023-10-02T04:10:05.394Z,99.99
2023-10-02T04:11:05.537Z,99.99
2023-10-02T04:12:05.481Z,99.99
2023-10-02T04:13:05.366Z,99.99
2023-10-02T04:14:05.324Z,99.99
2023-10-02T04:15:05.489Z,99.99
2023-10-02T04:16:05.333Z,99.99
2023-10-02T04:17:05.368Z,99.99
2023-10-02T04:18:05.286Z,99.99
2023-10-02T04:19:05.771Z,99.99
2023-10-02T04:20:05.347Z,99.99
2023-10-02T04:21:05.242Z,99.99
2023-10-02T04:22:05.406Z,99.99
2023-10-02T04:23:05.301Z,99.99
2023-10-02T04:24:05.586Z,99.99
2023-10-02T04:25:05.496Z,99.99
2023-10-02T04:26:05.461Z,99.99
2023-10-02T04:27:05.217Z,99.99
2023-10-02T04:28:05.212Z,99.99
2023-10-02T04:29:05.207Z,99.99
2023-10-02T04:30:05.230Z,99.99
2023-10-02T04:31:05.356Z,99.99
2023-10-02T04:32:05.867Z,99.99
2023-10-02T04:33:05.137Z,99.99
2023-10-02T04:34:05.115Z,99.99
2023-10-02T04:35:05.129Z,99.99
2023-10-02T04:36:05.278Z,99.99
2023-10-02T04:37:05.122Z,99.99
2023-10-02T04:38:05.370Z,99.99
2023-10-02T04:39:05.057Z,99.99
2023-10-02T04:40:05.269Z,99.99
2023-10-02T04:41:05.283Z,99.99
2023-10-02T04:42:05.031Z,99.99
2023-10-02T04:43:05.025Z,99.99
2023-10-02T04:44:05.047Z,99.99
2023-10-02T04:45:04.995Z,99.99
2023-10-02T04:46:05.021Z,99.99
2023-10-02T04:47:05.131Z,99.99
2023-10-02T04:48:05.134Z,99.99
2023-10-02T04:49:05.222Z,99.99
2023-10-02T04:50:05.875Z,99.99
2023-10-02T04:51:04.993Z,99.99
2023-10-02T04:52:04.992Z,99.99
2023-10-02T04:53:05.164Z,99.99
2023-10-02T04:54:04.906Z,99.99
2023-10-02T04:55:05.027Z,99.99
2023-10-02T04:56:04.984Z,99.99
2023-10-02T04:57:04.952Z,99.99
2023-10-02T04:58:04.896Z,99.99
2023-10-02T04:59:05.012Z,99.99
2023-10-02T05:00:06.040Z,99.99
2023-10-02T05:01:05.868Z,99.99
2023-10-02T05:02:04.937Z,99.99
2023-10-02T05:03:04.984Z,99.99
2023-10-02T05:04:05.084Z,99.99
2023-10-02T05:05:04.977Z,99.99
2023-10-02T05:06:04.873Z,99.99
2023-10-02T05:07:04.897Z,99.99
2023-10-02T05:08:05.581Z,99.99
2023-10-02T05:09:05.135Z,99.99
2023-10-02T05:10:05.110Z,99.99
2023-10-02T05:11:05.013Z,99.99
2023-10-02T05:12:04.743Z,99.99
2023-10-02T05:13:04.944Z,99.99
2023-10-02T05:14:04.699Z,99.99
2023-10-02T05:15:04.677Z,99.99
2023-10-02T05:16:04.673Z,99.99
2023-10-02T05:17:04.813Z,99.99
2023-10-02T05:18:04.710Z,99.99
2023-10-02T05:19:04.666Z,99.99
2023-10-02T05:20:04.889Z,99.99
2023-10-02T05:21:04.870Z,99.99
2023-10-02T05:22:04.658Z,99.99
2023-10-02T05:23:04.852Z,99.99
2023-10-02T05:24:04.636Z,99.99
2023-10-02T05:25:04.646Z,99.99
2023-10-02T05:26:04.715Z,99.99
2023-10-02T05:27:04.808Z,99.99
2023-10-02T05:28:04.572Z,99.99
2023-10-02T05:29:07.400Z,99.99
2023-10-02T05:30:04.516Z,99.99
2023-10-02T05:31:04.784Z,99.99
2023-10-02T05:32:04.748Z,99.99
2023-10-02T05:33:04.591Z,99.99
2023-10-02T05:34:04.616Z,99.99
2023-10-02T05:35:05.641Z,99.99
2023-10-02T05:36:04.659Z,99.99
2023-10-02T05:37:04.533Z,99.99
2023-10-02T05:38:04.896Z,99.99
2023-10-02T05:39:04.657Z,99.99
2023-10-02T05:40:04.451Z,99.99
2023-10-02T05:41:04.510Z,99.99
2023-10-02T05:42:04.451Z,99.99
2023-10-02T05:43:04.622Z,99.99
2023-10-02T05:44:04.434Z,99.99
2023-10-02T05:45:04.415Z,99.99
2023-10-02T05:46:04.464Z,99.99
2023-10-02T05:47:04.525Z,99.99
2023-10-02T05:48:04.395Z,99.99
2023-10-02T05:49:04.371Z,99.99
2023-10-02T05:50:04.512Z,99.99
2023-10-02T05:51:04.384Z,99.99
2023-10-02T05:52:04.353Z,99.99
2023-10-02T05:53:04.687Z,99.99
2023-10-02T05:54:04.420Z,99.99
2023-10-02T05:55:04.353Z,99.99
2023-10-02T05:56:04.565Z,99.99
2023-10-02T05:57:04.241Z,99.99
2023-10-02T05:58:04.338Z,99.99
2023-10-02T05:59:04.425Z,99.99
2023-10-02T06:00:04.288Z,99.99
2023-10-02T06:01:04.276Z,99.99
2023-10-02T06:02:04.244Z,99.99
2023-10-02T06:03:04.350Z,99.99
2023-10-02T06:04:04.199Z,99.99
2023-10-02T06:05:04.203Z,99.99
2023-10-02T06:06:04.175Z,99.99
2023-10-02T06:07:04.221Z,99.99
2023-10-02T06:08:04.241Z,99.99
2023-10-02T06:09:04.345Z,99.99
2023-10-02T06:10:04.170Z,99.99
2023-10-02T06:11:04.164Z,99.99
2023-10-02T06:12:04.098Z,99.99
2023-10-02T06:13:04.896Z,99.99
2023-10-02T06:14:04.129Z,99.99
2023-10-02T06:15:04.079Z,99.99
2023-10-02T06:16:04.232Z,99.99
2023-10-02T06:17:04.176Z,99.99
2023-10-02T06:18:04.196Z,99.99
2023-10-02T06:19:04.108Z,99.99
2023-10-02T06:20:04.070Z,99.99
2023-10-02T06:21:04.035Z,99.99
2023-10-02T06:22:04.127Z,99.99
2023-10-02T06:23:04.121Z,99.99
2023-10-02T06:24:04.087Z,99.99
2023-10-02T06:25:04.112Z,99.99
2023-10-02T06:26:04.050Z,99.99
2023-10-02T06:27:04.022Z,99.99
2023-10-02T06:28:03.965Z,99.99
2023-10-02T06:29:04.101Z,99.99
2023-10-02T06:30:03.950Z,99.99
2023-10-02T06:31:03.997Z,99.99
2023-10-02T06:32:04.451Z,99.99
2023-10-02T06:33:03.997Z,99.99
2023-10-02T06:34:03.993Z,99.99
2023-10-02T06:35:04.068Z,99.99
2023-10-02T06:36:04.031Z,99.99
2023-10-02T06:37:03.879Z,99.99
2023-10-02T06:38:04.111Z,99.99
2023-10-02T06:39:03.945Z,99.99
2023-10-02T06:40:03.867Z,99.99
2023-10-02T06:41:03.818Z,99.16
2023-10-02T06:42:03.813Z,98.71
2023-10-02T06:43:03.952Z,98.40
2023-10-02T06:44:03.849Z,98.20
2023-10-02T06:45:03.953Z,97.45
2023-10-02T06:46:03.843Z,97.85
2023-10-02T06:47:03.852Z,97.60
2023-10-02T06:48:03.854Z,97.60
2023-10-02T06:49:03.731Z,97.71
2023-10-02T06:50:04.009Z,97.60
2023-10-02T06:51:03.879Z,97.56
2023-10-02T06:52:03.844Z,97.16
2023-10-02T06:53:03.746Z,96.91
2023-10-02T06:54:03.906Z,97.01
2023-10-02T06:55:03.841Z,95.14
2023-10-02T06:56:03.833Z,95.35
2023-10-02T06:57:03.754Z,92.18
2023-10-02T06:58:03.637Z,92.38
2023-10-02T06:59:03.947Z,93.04
2023-10-02T07:00:03.777Z,93.65
2023-10-02T07:01:03.764Z,93.70
2023-10-02T07:02:03.729Z,91.38
2023-10-02T07:03:03.880Z,91.14
2023-10-02T07:04:03.877Z,91.34
2023-10-02T07:05:03.703Z,90.69
2023-10-02T07:06:03.577Z,90.85
2023-10-02T07:07:03.613Z,88.54
2023-10-02T07:08:03.793Z,88.74
2023-10-02T07:09:03.544Z,88.54
2023-10-02T07:10:03.750Z,87.08
2023-10-02T07:11:03.558Z,88.39
2023-10-02T07:12:03.499Z,88.35
2023-10-02T07:13:03.721Z,88.25
2023-10-02T07:14:03.721Z,86.44
2023-10-02T07:15:03.548Z,87.04
2023-10-02T07:16:03.529Z,86.40
2023-10-02T07:17:03.640Z,85.39
2023-10-02T07:18:03.674Z,86.70
2023-10-02T07:19:03.578Z,85.80
2023-10-02T07:20:03.765Z,86.06
2023-10-02T07:21:03.508Z,83.51
2023-10-02T07:22:03.484Z,84.17
2023-10-02T07:23:03.486Z,82.82
2023-10-02T07:24:03.492Z,80.92
2023-10-02T07:25:03.495Z,81.99
2023-10-02T07:26:03.791Z,79.94
2023-10-02T07:27:03.416Z,78.20
2023-10-02T07:28:03.403Z,80.17
2023-10-02T07:29:03.704Z,79.77
2023-10-02T07:30:03.351Z,80.13
2023-10-02T07:31:03.433Z,78.43
2023-10-02T07:32:03.477Z,76.49
2023-10-02T07:33:03.580Z,77.79
2023-10-02T07:34:03.277Z,76.65
2023-10-02T07:35:03.312Z,77.06
2023-10-02T07:36:03.403Z,76.42
2023-10-02T07:37:03.274Z,76.52
2023-10-02T07:38:03.278Z,76.72
2023-10-02T07:39:03.702Z,76.82
2023-10-02T07:40:03.324Z,74.68
2023-10-02T07:41:03.267Z,74.88
2023-10-02T07:42:03.397Z,75.05
2023-10-02T07:43:03.393Z,75.61
2023-10-02T07:44:03.256Z,73.42
2023-10-02T07:45:03.161Z,73.78
2023-10-02T07:46:03.887Z,73.08
2023-10-02T07:47:03.174Z,73.88
2023-10-02T07:48:03.186Z,72.19
2023-10-02T07:49:03.591Z,74.77
2023-10-02T07:50:03.204Z,74.77
2023-10-02T07:51:03.202Z,73.65
2023-10-02T07:52:03.114Z,73.65
2023-10-02T07:53:03.124Z,73.55
2023-10-02T07:54:03.099Z,72.22
2023-10-02T07:55:03.096Z,73.18
2023-10-02T07:56:03.093Z,73.34
2023-10-02T07:57:03.082Z,71.28
2023-10-02T07:58:03.111Z,68.83
2023-10-02T07:59:03.479Z,65.45
2023-10-02T08:00:03.113Z,66.81
2023-10-02T08:01:03.089Z,63.46
2023-10-02T08:02:03.617Z,64.06
2023-10-02T08:03:03.093Z,65.06
2023-10-02T08:04:03.180Z,67.34
2023-10-02T08:05:03.164Z,67.83
2023-10-02T08:06:03.110Z,65.55
2023-10-02T08:07:18.897Z,65.65
2023-10-02T08:08:02.990Z,68.63
2023-10-02T08:09:03.072Z,68.80
2023-10-02T08:10:03.081Z,67.08
2023-10-02T08:11:03.332Z,67.74
2023-10-02T08:12:02.923Z,65.16
2023-10-02T08:13:03.158Z,67.54
2023-10-02T08:14:02.910Z,62.26
2023-10-02T08:15:03.181Z,62.26
2023-10-02T08:16:02.930Z,63.94
2023-10-02T08:17:03.067Z,65.13
2023-10-02T08:18:03.074Z,65.20
2023-10-02T08:19:03.178Z,64.97
2023-10-02T08:20:02.936Z,61.77
2023-10-02T08:21:03.151Z,58.80
2023-10-02T08:22:02.944Z,60.68
2023-10-02T08:23:03.085Z,62.76
2023-10-02T08:24:03.123Z,61.18
2023-10-02T08:25:03.016Z,63.06
2023-10-02T08:26:19.230Z,59.69
2023-10-02T08:27:03.280Z,64.28
2023-10-02T08:28:02.945Z,60.74
2023-10-02T08:29:03.077Z,63.31
2023-10-02T08:30:02.734Z,64.01
2023-10-02T08:31:02.801Z,62.42
2023-10-02T08:32:02.949Z,61.33
2023-10-02T08:33:02.859Z,64.50
2023-10-02T08:34:05.740Z,62.42
2023-10-02T08:35:02.981Z,62.72
2023-10-02T08:36:02.810Z,60.24
2023-10-02T08:37:02.768Z,61.73
2023-10-02T08:38:02.671Z,63.74
2023-10-02T08:39:17.493Z,62.15
2023-10-02T08:40:03.055Z,63.45
2023-10-02T08:41:02.670Z,62.55
2023-10-02T08:42:02.627Z,66.52
2023-10-02T08:43:02.696Z,65.09
2023-10-02T08:44:02.929Z,65.46
2023-10-02T08:45:02.737Z,64.94
2023-10-02T08:46:05.129Z,63.92
2023-10-02T08:47:02.608Z,62.53
2023-10-02T08:48:02.656Z,60.45
2023-10-02T08:49:02.788Z,66.29
2023-10-02T08:50:02.620Z,61.44
2023-10-02T08:51:02.747Z,64.21
2023-10-02T08:52:02.566Z,62.04
2023-10-02T08:53:02.606Z,63.98
2023-10-02T08:54:02.806Z,63.89
2023-10-02T08:55:02.547Z,63.68
2023-10-02T08:56:02.789Z,62.10
2023-10-02T08:57:02.628Z,62.60
2023-10-02T08:58:12.956Z,57.85
2023-10-02T08:59:02.820Z,59.14
2023-10-02T09:00:02.640Z,61.51
2023-10-02T09:01:02.623Z,59.93
2023-10-02T09:02:02.590Z,61.11
2023-10-02T09:03:02.694Z,61.31
2023-10-02T09:04:02.444Z,60.22
2023-10-02T09:05:02.491Z,63.36
2023-10-02T09:06:02.429Z,61.16
2023-10-02T09:07:02.553Z,61.62
2023-10-02T09:08:02.860Z,60.04
2023-10-02T09:09:02.608Z,56.58
2023-10-02T09:10:02.369Z,58.06
2023-10-02T09:11:02.556Z,58.04
2023-10-02T09:12:02.486Z,58.30
2023-10-02T09:13:02.336Z,56.21
2023-10-02T09:14:02.391Z,55.19
2023-10-02T09:15:08.369Z,57.06
2023-10-02T09:16:02.500Z,58.22
2023-10-02T09:17:02.578Z,55.07
2023-10-02T09:18:02.331Z,55.76
2023-10-02T09:19:02.866Z,55.26
2023-10-02T09:20:02.391Z,56.25
2023-10-02T09:21:02.244Z,56.35
2023-10-02T09:22:02.619Z,54.94
2023-10-02T09:23:02.475Z,56.81
2023-10-02T09:24:02.461Z,56.56
2023-10-02T09:25:02.243Z,55.55
2023-10-02T09:26:02.296Z,54.83
2023-10-02T09:27:02.207Z,54.02
2023-10-02T09:28:02.366Z,52.45
2023-10-02T09:29:03.272Z,53.23
2023-10-02T09:30:02.196Z,52.84
2023-10-02T09:31:02.282Z,51.10
2023-10-02T09:32:02.205Z,53.27
2023-10-02T09:33:05.656Z,53.39
2023-10-02T09:34:22.520Z,54.05
2023-10-02T09:36:00.678Z,53.63
2023-10-02T09:37:28.265Z,53.60
2023-10-02T09:38:10.432Z,52.67
2023-10-02T09:38:16.200Z,50.37
2023-10-02T09:39:16.148Z,51.03
2023-10-02T09:40:16.596Z,49.04
2023-10-02T09:41:15.977Z,47.85
2023-10-02T09:42:16.101Z,46.57
2023-10-02T09:43:16.011Z,49.21
2023-10-02T09:44:16.058Z,49.87
2023-10-02T09:45:16.081Z,50.05
2023-10-02T09:46:16.063Z,50.34
2023-10-02T09:47:15.928Z,47.43
2023-10-02T09:48:15.923Z,48.21
2023-10-02T09:49:15.878Z,49.38
2023-10-02T09:50:15.986Z,49.77
2023-10-02T09:51:16.022Z,50.44
2023-10-02T09:52:15.871Z,48.36
2023-10-02T09:53:15.899Z,48.02
2023-10-02T09:54:15.928Z,47.14
2023-10-02T09:55:15.807Z,49.00
2023-10-02T09:56:15.910Z,45.12
2023-10-02T09:57:15.815Z,44.84
2023-10-02T09:58:15.834Z,47.41
2023-10-02T09:59:15.821Z,46.72
2023-10-02T10:00:16.037Z,49.09
2023-10-02T10:01:15.787Z,51.25
2023-10-02T10:02:15.818Z,47.14
2023-10-02T10:03:15.883Z,48.41
2023-10-02T10:04:15.790Z,50.93
2023-10-02T10:05:15.760Z,49.14
2023-10-02T10:06:15.778Z,49.51
2023-10-02T10:07:15.870Z,46.95
2023-10-02T10:08:15.765Z,44.31
2023-10-02T10:09:15.813Z,46.60
2023-10-02T10:10:15.978Z,46.72
2023-10-02T10:11:15.764Z,46.99
2023-10-02T10:12:15.689Z,46.97
2023-10-02T10:13:15.812Z,44.41
2023-10-02T10:14:15.861Z,46.95
2023-10-02T10:15:15.770Z,45.05
2023-10-02T10:16:15.641Z,42.49
2023-10-02T10:17:15.678Z,44.34
2023-10-02T10:18:15.689Z,45.28
2023-10-02T10:19:15.599Z,43.96
2023-10-02T10:20:15.748Z,42.46
2023-10-02T10:21:15.643Z,43.01
2023-10-02T10:22:15.592Z,39.78
2023-10-02T10:23:15.597Z,42.11
2023-10-02T10:24:15.677Z,41.33
2023-10-02T10:25:16.959Z,39.98
2023-10-02T10:26:15.856Z,40.29
2023-10-02T10:27:15.560Z,41.43
2023-10-02T10:28:15.728Z,40.66
2023-10-02T10:29:15.593Z,41.16
2023-10-02T10:30:15.709Z,40.79
2023-10-02T10:31:16.181Z,39.43
2023-10-02T10:32:15.601Z,40.11
2023-10-02T10:33:15.727Z,39.45
2023-10-02T10:34:15.674Z,41.20
2023-10-02T10:35:15.729Z,41.30
2023-10-02T10:36:15.702Z,41.88
2023-10-02T10:37:15.452Z,39.65
2023-10-02T10:38:15.646Z,39.75
2023-10-02T10:39:15.484Z,41.59
2023-10-02T10:40:15.414Z,42.36
2023-10-02T10:41:15.456Z,40.91
2023-10-02T10:42:15.452Z,41.69
2023-10-02T10:43:15.417Z,41.08
2023-10-02T10:44:15.744Z,39.24
2023-10-02T10:45:15.477Z,40.31
2023-10-02T10:46:15.833Z,41.38
2023-10-02T10:47:15.968Z,40.01
2023-10-02T10:48:15.522Z,39.86
2023-10-02T10:49:15.434Z,42.80
2023-10-02T10:50:15.590Z,42.33
2023-10-02T10:51:15.339Z,40.97
2023-10-02T10:52:15.392Z,42.21
2023-10-02T10:53:15.531Z,41.24
2023-10-02T10:54:18.743Z,40.27
2023-10-02T10:55:15.348Z,39.98
2023-10-02T10:56:15.284Z,41.14
2023-10-02T10:57:15.335Z,42.53
2023-10-02T10:58:15.450Z,42.50
2023-10-02T10:59:15.302Z,41.26
2023-10-02T11:00:15.298Z,42.82
2023-10-02T11:01:15.274Z,42.84
2023-10-02T11:02:15.266Z,43.05
2023-10-02T11:03:16.238Z,42.63
2023-10-02T11:04:15.298Z,45.61
2023-10-02T11:05:15.553Z,47.31
2023-10-02T11:06:15.251Z,47.43
2023-10-02T11:07:15.224Z,47.47
2023-10-02T11:08:15.484Z,49.33
2023-10-02T11:09:15.464Z,50.44
2023-10-02T11:10:15.306Z,51.15
2023-10-02T11:11:15.171Z,48.03
2023-10-02T11:12:15.256Z,47.67
2023-10-02T11:13:15.252Z,49.16
2023-10-02T11:14:15.284Z,49.58
2023-10-02T11:15:15.301Z,50.68
2023-10-02T11:16:15.373Z,50.68
2023-10-02T11:17:15.306Z,51.00
2023-10-02T11:18:15.426Z,51.67
2023-10-02T11:19:15.316Z,52.65
2023-10-02T11:20:15.327Z,51.25
2023-10-02T11:21:15.072Z,51.39
2023-10-02T11:22:15.229Z,49.51
2023-10-02T11:23:15.291Z,51.07
2023-10-02T11:24:15.570Z,50.66
2023-10-02T11:25:15.223Z,48.11
2023-10-02T11:26:15.614Z,47.85
2023-10-02T11:27:15.184Z,49.55
2023-10-02T11:28:14.996Z,47.77
2023-10-02T11:29:15.017Z,45.82
2023-10-02T11:30:15.373Z,44.74
2023-10-02T11:31:15.271Z,46.31
2023-10-02T11:32:15.121Z,47.66
2023-10-02T11:33:15.123Z,46.46
2023-10-02T11:34:32.394Z,45.36
2023-10-02T11:35:15.035Z,45.05
2023-10-02T11:36:15.064Z,43.76
2023-10-02T11:37:15.016Z,43.76
2023-10-02T11:38:15.168Z,43.08
2023-10-02T11:39:14.933Z,43.22
2023-10-02T11:40:15.056Z,45.87
2023-10-02T11:41:15.222Z,44.80
2023-10-02T11:42:15.081Z,46.19
2023-10-02T11:43:15.128Z,44.65
2023-10-02T11:44:14.909Z,47.82
2023-10-02T11:45:14.973Z,47.75
2023-10-02T11:46:14.868Z,47.47
2023-10-02T11:47:14.976Z,49.38
2023-10-02T11:48:14.960Z,48.23
2023-10-02T11:49:14.852Z,48.94
2023-10-02T11:50:14.863Z,50.46
2023-10-02T11:51:15.163Z,50.21
2023-10-02T11:52:14.829Z,51.91
2023-10-02T11:53:14.845Z,52.43
2023-10-02T11:54:15.541Z,54.10
2023-10-02T11:55:14.950Z,53.36
2023-10-02T11:56:15.063Z,52.38
2023-10-02T11:57:14.893Z,53.49
2023-10-02T11:58:14.790Z,52.80
2023-10-02T11:59:14.813Z,53.31
2023-10-02T12:00:14.803Z,52.82
2023-10-02T12:01:14.770Z,53.64
2023-10-02T12:02:14.839Z,53.78
2023-10-02T12:03:14.953Z,55.68
2023-10-02T12:04:14.812Z,56.10
2023-10-02T12:05:14.791Z,57.42
2023-10-02T12:06:14.909Z,59.09
2023-10-02T12:07:14.686Z,59.42
2023-10-02T12:08:14.716Z,59.05
2023-10-02T12:09:14.669Z,61.03
2023-10-02T12:10:14.698Z,62.04
2023-10-02T12:11:14.698Z,58.72
2023-10-02T12:12:14.661Z,59.50
2023-10-02T12:13:14.799Z,59.44
2023-10-02T12:14:14.785Z,60.52
2023-10-02T12:15:14.606Z,59.14
2023-10-02T12:16:14.732Z,60.72
2023-10-02T12:17:14.589Z,62.60
2023-10-02T12:18:14.671Z,63.68
2023-10-02T12:19:14.539Z,60.52
2023-10-02T12:20:15.552Z,60.82
2023-10-02T12:21:14.560Z,62.30
2023-10-02T12:22:14.528Z,62.40
2023-10-02T12:23:14.582Z,64.78
2023-10-02T12:24:14.580Z,65.66
2023-10-02T12:25:14.505Z,65.96
2023-10-02T12:26:14.555Z,63.09
2023-10-02T12:27:14.498Z,62.40
2023-10-02T12:28:14.516Z,61.71
2023-10-02T12:29:14.490Z,62.50
2023-10-02T12:30:14.497Z,63.85
2023-10-02T12:31:14.504Z,65.83
2023-10-02T12:32:14.934Z,64.15
2023-10-02T12:33:14.468Z,60.56
2023-10-02T12:34:14.625Z,59.64
2023-10-02T12:35:14.546Z,58.95
2023-10-02T12:36:14.417Z,60.70
2023-10-02T12:37:14.396Z,60.50
2023-10-02T12:38:14.443Z,60.70
2023-10-02T12:39:14.401Z,61.49
2023-10-02T12:40:14.478Z,58.73
2023-10-02T12:41:14.398Z,59.91
2023-10-02T12:42:14.439Z,59.22
2023-10-02T12:43:14.441Z,57.15
2023-10-02T12:44:14.586Z,59.52
2023-10-02T12:45:14.413Z,60.24
2023-10-02T12:46:14.628Z,61.32
2023-10-02T12:47:14.520Z,62.31
2023-10-02T12:48:14.760Z,62.71
2023-10-02T12:49:14.314Z,61.52
2023-10-02T12:50:14.424Z,59.64
2023-10-02T12:51:14.425Z,60.66
2023-10-02T12:52:14.450Z,63.13